Time;durP1;ratioP1;P1;durP2;ratioP2;P2;SDS_P1;SDS_P2;PMS_P1;PMS_P2;Temp;Humidity;BMP_temperature;BMP_pressure;BME280_temperature;BME280_humidity;BME280_pressure;Samples;Min_cycle;Max_cycle;Signal;HPM_P1;HPM_P2
2024/01/04 00:00:25;;;;;;;7.00;2.63;;;;;;;7.19;100.00;99405.41;4977055;28;20278;-86
2024/01/04 00:02:50;;;;;;;;;;;;;;;7.20;100.00;99407.09;4977231;28;20031;-86
2024/01/04 00:05:16;;;;;;;5.33;2.70;;;;;;;7.21;100.00;99424.28;4976324;28;19921;-86
2024/01/04 00:07:41;;;;;;;5.63;2.70;;;;;;;7.16;100.00;99420.94;4977040;28;20066;-86
2024/01/04 00:10:07;;;;;;;6.80;2.70;;;;;;;7.21;100.00;99437.19;4977268;28;20023;-86
2024/01/04 00:12:32;;;;;;;4.90;2.40;;;;;;;7.18;100.00;99443.25;4976589;28;20037;-87
2024/01/04 00:14:59;;;;;;;6.32;2.35;;;;;;;7.17;100.00;99444.16;4996693;28;20041;-86
2024/01/04 00:17:27;;;;;;;6.80;2.67;;;;;;;7.14;100.00;99449.38;4996294;28;20467;-86
2024/01/04 00:19:52;;;;;;;6.75;2.50;;;;;;;7.14;100.00;99457.13;4996126;28;20117;-86
2024/01/04 00:22:20;;;;;;;5.83;2.33;;;;;;;7.17;100.00;99466.50;4996504;28;20053;-86
2024/01/04 00:24:45;;;;;;;9.38;2.88;;;;;;;7.13;100.00;99465.72;4985804;28;20033;-86
2024/01/04 00:27:11;;;;;;;6.40;2.70;;;;;;;7.17;100.00;99477.69;4976291;28;20027;-86
2024/01/04 00:29:36;;;;;;;6.50;2.45;;;;;;;7.17;100.00;99484.56;4975922;28;20031;-86
2024/01/04 00:32:01;;;;;;;5.17;2.07;;;;;;;7.15;100.00;99483.78;4976277;28;20399;-86
2024/01/04 00:34:26;;;;;;;3.33;2.07;;;;;;;7.16;100.00;99500.94;4976570;28;20034;-86
2024/01/04 00:36:52;;;;;;;3.67;2.00;;;;;;;7.15;100.00;99507.84;4975796;28;20038;-86
2024/01/04 00:39:18;;;;;;;6.13;2.07;;;;;;;7.17;100.00;99516.41;4975728;28;20085;-85
2024/01/04 00:41:43;;;;;;;3.63;1.80;;;;;;;7.11;100.00;99513.94;4976174;28;20027;-85
2024/01/04 00:44:08;;;;;;;3.40;2.03;;;;;;;7.14;100.00;99520.78;4989179;28;20045;-86
2024/01/04 00:46:33;;;;;;;3.47;1.90;;;;;;;7.14;100.00;99526.78;4994638;28;20580;-86
2024/01/04 00:48:59;;;;;;;3.63;1.80;;;;;;;7.14;100.00;99523.38;4995726;28;20026;-86
2024/01/04 00:51:24;;;;;;;4.17;1.97;;;;;;;7.10;100.00;99520.84;4995824;28;20560;-86
2024/01/04 00:53:49;;;;;;;2.30;1.63;;;;;;;7.15;100.00;99541.38;4995450;28;20034;-86
2024/01/04 00:56:15;;;;;;;3.50;1.80;;;;;;;7.15;100.00;99543.97;4995721;28;20026;-86
2024/01/04 00:58:40;;;;;;;2.50;1.50;;;;;;;7.18;100.00;99546.47;4995564;28;20030;-86
2024/01/04 01:01:05;;;;;;;3.57;1.80;;;;;;;7.15;100.00;99554.28;4995271;28;20100;-86
2024/01/04 01:03:30;;;;;;;3.57;1.60;;;;;;;7.16;100.00;99571.47;4995633;28;20022;-86
2024/01/04 01:05:59;;;;;;;2.63;1.60;;;;;;;7.12;100.00;99569.81;4995633;28;20022;-86
2024/01/04 01:08:25;;;;;;;4.90;1.70;;;;;;;7.14;100.00;99575.81;4994849;28;20032;-86
2024/01/04 01:10:50;;;;;;;5.70;1.70;;;;;;;7.14;100.00;99588.69;4995107;28;20060;-85
2024/01/04 01:13:20;;;;;;;4.13;1.70;;;;;;;7.13;100.00;99589.59;4988961;28;20460;-85
2024/01/04 01:15:46;;;;;;;4.93;1.75;;;;;;;7.14;100.00;99591.28;4975228;28;20023;-85
2024/01/04 01:18:11;;;;;;;6.32;1.77;;;;;;;7.11;100.00;99599.94;4975915;28;20054;-85
2024/01/04 01:20:36;;;;;;;2.50;1.77;;;;;;;7.09;100.00;99595.72;4975770;28;20023;-86
2024/01/04 01:23:02;;;;;;;5.40;1.60;;;;;;;7.12;100.00;99598.19;4975017;28;20023;-85
2024/01/04 01:25:27;;;;;;;3.70;1.50;;;;;;;7.10;100.00;99599.97;4975298;28;20442;-85
2024/01/04 01:27:55;;;;;;;3.53;1.40;;;;;;;7.09;100.00;99600.88;4975049;28;20233;-85
2024/01/04 01:30:21;;;;;;;1.50;1.40;;;;;;;7.12;100.00;99608.53;4974796;28;20045;-86
2024/01/04 01:32:46;;;;;;;4.40;1.40;;;;;;;7.10;100.00;99605.13;4974957;28;20022;-85
2024/01/04 01:35:13;;;;;;;1.58;1.10;;;;;;;7.11;100.00;99618.00;4974913;28;20086;-85
2024/01/04 01:37:39;;;;;;;2.45;1.17;;;;;;;7.11;100.00;99622.31;4975212;28;20122;-86
2024/01/04 01:40:06;;;;;;;4.53;1.47;;;;;;;7.07;100.00;99612.94;4975122;28;20058;-86
2024/01/04 01:42:31;;;;;;;5.13;1.60;;;;;;;7.06;100.00;99629.31;4974533;28;20053;-84
2024/01/04 01:44:56;;;;;;;4.63;1.50;;;;;;;7.11;100.00;99642.94;4995039;28;20034;-86
2024/01/04 01:47:24;;;;;;;1.87;1.40;;;;;;;7.11;100.00;99654.13;4994145;28;20023;-85
2024/01/04 01:49:50;;;;;;;3.78;1.52;;;;;;;7.11;100.00;99648.09;4994088;28;20097;-85
2024/01/04 01:52:18;;;;;;;1.90;1.33;;;;;;;7.13;100.00;99650.66;4995637;28;20026;-86
2024/01/04 01:54:47;;;;;;;3.75;1.65;;;;;;;7.11;100.00;99659.28;4997960;28;20429;-86
2024/01/04 01:57:13;;;;;;;6.40;1.80;;;;;;;7.12;100.00;99670.44;4997441;28;20023;-86
2024/01/04 01:59:43;;;;;;;5.77;1.90;;;;;;;7.11;100.00;99661.88;4999708;28;20049;-85
2024/01/04 02:02:11;;;;;;;2.92;1.67;;;;;;;7.15;100.00;99667.81;4996700;28;20044;-85
2024/01/04 02:04:37;;;;;;;2.05;1.48;;;;;;;7.14;100.00;99671.28;4994475;28;20073;-85
2024/01/04 02:07:07;;;;;;;1.83;1.43;;;;;;;7.12;100.00;99673.03;4994933;28;20035;-86
2024/01/04 02:09:42;;;;;;;1.88;1.45;;;;;;;7.13;100.00;99677.31;4993585;28;20027;-85
2024/01/04 02:12:10;;;;;;;5.28;1.85;;;;;;;7.15;100.00;99677.28;4994142;28;20097;-86
2024/01/04 02:14:38;;;;;;;5.00;1.85;;;;;;;7.14;100.00;99686.75;4977959;28;20492;-87
2024/01/04 02:17:04;;;;;;;4.47;1.90;;;;;;;7.13;100.00;99697.13;4974807;28;20126;-85
2024/01/04 02:19:30;;;;;;;6.20;1.80;;;;;;;7.10;100.00;99704.03;4975257;28;20073;-86
2024/01/04 02:21:58;;;;;;;3.40;1.57;;;;;;;7.08;100.00;99710.09;4974636;28;20034;-86
2024/01/04 02:24:23;;;;;;;3.65;1.63;;;;;;;7.08;100.00;99717.84;4974826;28;20019;-85
2024/01/04 02:26:48;;;;;;;2.93;1.60;;;;;;;7.05;100.00;99715.31;4975285;28;20023;-85
2024/01/04 02:29:14;;;;;;;2.67;1.57;;;;;;;7.09;100.00;99719.53;4975787;28;20037;-86
2024/01/04 02:31:39;;;;;;;3.70;1.60;;;;;;;7.08;100.00;99723.84;4974465;28;20023;-85
2024/01/04 02:34:04;;;;;;;1.97;1.67;;;;;;;7.09;100.00;99722.13;4974848;28;20033;-86
2024/01/04 02:36:29;;;;;;;3.67;1.60;;;;;;;7.08;100.00;99721.25;4975076;28;20114;-86
2024/01/04 02:38:55;;;;;;;3.73;1.63;;;;;;;7.10;100.00;99722.09;4974061;28;20023;-86
2024/01/04 02:41:20;;;;;;;6.03;2.07;;;;;;;7.09;100.00;99730.72;4974866;28;20047;-85
2024/01/04 02:43:45;;;;;;;3.87;2.00;;;;;;;7.11;100.00;99733.25;4989595;28;20037;-84
2024/01/04 02:46:10;;;;;;;8.57;2.40;;;;;;;7.10;100.00;99731.53;4993163;28;20038;-85
2024/01/04 02:48:36;;;;;;;3.80;2.20;;;;;;;7.08;100.00;99725.59;4993824;28;20463;-85
2024/01/04 02:51:02;;;;;;;3.70;2.03;;;;;;;7.09;100.00;99743.59;4993867;28;20026;-85
2024/01/04 02:53:27;;;;;;;3.55;2.00;;;;;;;7.11;100.00;99743.56;4991764;28;20031;-85
2024/01/04 02:55:54;;;;;;;4.05;2.00;;;;;;;7.07;100.00;99736.78;4992370;28;20043;-85
2024/01/04 02:58:19;;;;;;;;;;;;;;;7.11;100.00;99747.00;4994477;28;20403;-85
2024/01/04 03:00:45;;;;;;;5.20;2.40;;;;;;;7.07;100.00;99740.19;4996812;28;19913;-86
2024/01/04 03:03:12;;;;;;;6.17;2.37;;;;;;;7.10;100.00;99753.06;4997938;28;20027;-86
2024/01/04 03:05:37;;;;;;;5.05;2.20;;;;;;;7.09;100.00;99748.75;4997723;28;20038;-86
2024/01/04 03:08:03;;;;;;;2.63;2.00;;;;;;;7.09;100.00;99769.41;4996700;28;20034;-86
2024/01/04 03:10:28;;;;;;;5.03;2.20;;;;;;;7.08;100.00;99769.44;4997275;28;20041;-86
2024/01/04 03:12:54;;;;;;;5.57;2.30;;;;;;;7.07;100.00;99767.75;4988182;28;20046;-85
2024/01/04 03:15:19;;;;;;;6.07;2.40;;;;;;;7.05;100.00;99775.50;4977274;28;20097;-86
2024/01/04 03:17:44;;;;;;;3.20;1.90;;;;;;;7.04;100.00;99771.19;4978238;28;20030;-85
2024/01/04 03:20:10;;;;;;;4.57;2.10;;;;;;;7.06;100.00;99779.78;4978627;28;20102;-85
2024/01/04 03:22:38;;;;;;;4.23;2.10;;;;;;;7.04;100.00;99781.53;4977200;28;20023;-85
2024/01/04 03:25:05;;;;;;;5.18;1.90;;;;;;;7.04;100.00;99789.25;4978019;28;20100;-85
2024/01/04 03:27:30;;;;;;;3.60;2.00;;;;;;;7.05;100.00;99782.38;4978172;28;20452;-86
2024/01/04 03:29:58;;;;;;;3.03;1.87;;;;;;;7.04;100.00;99793.59;4977181;28;20043;-86
2024/01/04 03:32:23;;;;;;;3.45;2.08;;;;;;;7.07;100.00;99801.28;4978275;28;20027;-86
2024/01/04 03:34:49;;;;;;;5.23;2.00;;;;;;;7.07;100.00;99803.88;4977148;28;20034;-86
2024/01/04 03:37:14;;;;;;;3.67;2.10;;;;;;;7.07;100.00;99809.84;4978354;28;20038;-86
2024/01/04 03:39:39;;;;;;;4.57;2.17;;;;;;;7.08;100.00;99805.56;4977622;28;20018;-86
2024/01/04 03:42:05;;;;;;;2.23;1.87;;;;;;;7.08;100.00;99815.88;4979495;28;20121;-85
2024/01/04 03:44:32;;;;;;;4.27;2.10;;;;;;;7.06;100.00;99810.72;4980274;28;20035;-86
2024/01/04 03:46:57;;;;;;;5.05;2.00;;;;;;;7.06;100.00;99813.31;4977751;28;20110;-86
2024/01/04 03:49:23;;;;;;;2.60;1.80;;;;;;;7.08;100.00;99823.63;4976854;28;20058;-86
2024/01/04 03:51:48;;;;;;;4.77;2.60;;;;;;;7.05;100.00;99821.94;4976947;28;20031;-86
2024/01/04 03:54:14;;;;;;;3.77;2.23;;;;;;;7.06;100.00;99823.63;4977712;28;20022;-87
2024/01/04 03:56:39;;;;;;;2.47;2.20;;;;;;;7.06;100.00;99826.22;4976566;28;20018;-85
2024/01/04 03:59:05;;;;;;;2.00;1.80;;;;;;;7.01;100.00;99816.84;4977702;28;20539;-86
2024/01/04 04:01:30;;;;;;;2.03;1.83;;;;;;;6.94;100.00;99810.94;4977687;28;20494;-86
2024/01/04 04:03:55;;;;;;;2.92;2.00;;;;;;;7.00;100.00;99826.34;4977381;28;20033;-86
2024/01/04 04:06:21;;;;;;;3.33;2.10;;;;;;;6.97;100.00;99825.53;4977460;28;20031;-86
2024/01/04 04:08:46;;;;;;;3.58;2.03;;;;;;;6.95;100.00;99828.13;4977511;28;20033;-86
2024/01/04 04:11:18;;;;;;;3.33;2.22;;;;;;;6.97;100.00;99834.13;4975815;28;20062;-86
2024/01/04 04:13:43;;;;;;;4.60;2.33;;;;;;;6.97;100.00;99830.69;4991860;28;20121;-86
2024/01/04 04:16:09;;;;;;;5.20;2.43;;;;;;;6.97;100.00;99828.13;4996589;28;20069;-85
2024/01/04 04:18:34;;;;;;;5.27;2.50;;;;;;;6.95;100.00;99831.56;4995615;28;20034;-85
2024/01/04 04:20:59;;;;;;;5.47;2.50;;;;;;;6.98;100.00;99842.72;4996172;28;20073;-85
2024/01/04 04:23:24;;;;;;;5.27;3.00;;;;;;;6.97;100.00;99835.84;4996858;28;20085;-86
2024/01/04 04:25:50;;;;;;;7.97;3.30;;;;;;;6.97;100.00;99848.75;4995312;28;20061;-85
2024/01/04 04:28:15;;;;;;;6.87;3.23;;;;;;;6.97;100.00;99852.19;4996303;28;20482;-85
2024/01/04 04:30:40;;;;;;;6.60;3.20;;;;;;;7.00;100.00;99861.59;4996262;28;20109;-87
2024/01/04 04:33:06;;;;;;;7.77;3.70;;;;;;;7.01;100.00;99858.13;4999186;28;20026;-86
2024/01/04 04:35:31;;;;;;;5.83;3.30;;;;;;;7.00;100.00;99859.88;5002976;28;20046;-86
2024/01/04 04:37:56;;;;;;;9.67;4.00;;;;;;;6.99;100.00;99860.75;5003768;28;20086;-87
2024/01/04 04:40:24;;;;;;;7.50;3.40;;;;;;;6.99;100.00;99865.03;5006994;28;20434;-87
2024/01/04 04:42:49;;;;;;;10.02;3.70;;;;;;;7.01;100.00;99876.19;4996285;28;20034;-88
2024/01/04 04:45:15;;;;;;;7.50;3.10;;;;;;;6.97;100.00;99871.97;4996165;28;20026;-87
2024/01/04 04:47:40;;;;;;;6.72;3.30;;;;;;;7.00;100.00;99884.81;4996624;28;20042;-89
2024/01/04 04:50:06;;;;;;;6.47;3.20;;;;;;;6.96;100.00;99884.00;4996877;28;20026;-87
2024/01/04 04:52:31;;;;;;;5.47;3.08;;;;;;;6.95;100.00;99878.00;4995425;28;20031;-87
2024/01/04 04:54:56;;;;;;;7.50;3.60;;;;;;;6.99;100.00;99885.66;4996283;28;20532;-87
2024/01/04 04:57:22;;;;;;;7.33;3.50;;;;;;;6.93;100.00;99892.66;4995974;28;20049;-87
2024/01/04 04:59:47;;;;;;;6.40;3.30;;;;;;;6.93;100.00;99892.66;4995054;28;20097;-87
2024/01/04 05:02:13;;;;;;;3.93;2.70;;;;;;;6.94;100.00;99896.06;4995767;28;20438;-86
2024/01/04 05:04:38;;;;;;;5.00;2.77;;;;;;;6.95;100.00;99898.63;4996150;28;20112;-86
2024/01/04 05:07:04;;;;;;;5.53;2.80;;;;;;;6.95;100.00;99890.91;4995085;28;20467;-87
2024/01/04 05:09:29;;;;;;;3.73;2.60;;;;;;;6.97;100.00;99902.94;4995626;28;20034;-86
2024/01/04 05:11:55;;;;;;;5.53;2.70;;;;;;;6.94;100.00;99903.81;4994497;28;20030;-86
2024/01/04 05:14:20;;;;;;;5.40;2.60;;;;;;;6.93;100.00;99902.97;4994454;28;20443;-87
2024/01/04 05:16:46;;;;;;;6.33;2.73;;;;;;;6.93;100.00;99902.09;4995411;28;20022;-87
2024/01/04 05:19:11;;;;;;;3.30;2.30;;;;;;;6.93;100.00;99897.81;4996011;28;20018;-88
2024/01/04 05:21:36;;;;;;;4.93;2.60;;;;;;;6.96;100.00;99927.84;4994751;28;20018;-88
2024/01/04 05:24:02;;;;;;;4.20;2.70;;;;;;;6.93;100.00;99926.19;4996071;28;20033;-88
2024/01/04 05:26:27;;;;;;;3.83;2.47;;;;;;;6.96;100.00;99925.28;4996306;28;20041;-88
2024/01/04 05:28:52;;;;;;;5.45;2.70;;;;;;;6.95;100.00;99931.31;4995001;28;20019;-88
2024/01/04 05:31:21;;;;;;;5.47;2.50;;;;;;;6.95;100.00;99933.88;4995891;28;20117;-88
2024/01/04 05:33:46;;;;;;;3.65;2.30;;;;;;;6.99;100.00;99932.97;4995354;28;20394;-89
2024/01/04 05:36:12;;;;;;;3.67;2.10;;;;;;;6.99;100.00;99935.56;4995166;28;20023;-89
2024/01/04 05:38:37;;;;;;;5.00;2.20;;;;;;;7.01;100.00;99940.69;4995522;28;20453;-88
2024/01/04 05:41:04;;;;;;;2.93;1.83;;;;;;;6.99;100.00;99940.72;4994956;28;20022;-88
2024/01/04 05:43:30;;;;;;;1.48;1.38;;;;;;;7.03;100.00;99951.84;4981743;28;20113;-88
2024/01/04 05:45:55;;;;;;;1.93;1.73;;;;;;;7.02;100.00;99948.41;4975107;28;20050;-88
2024/01/04 05:48:21;;;;;;;2.40;1.83;;;;;;;7.00;100.00;99949.28;4975160;28;20058;-87
2024/01/04 05:50:46;;;;;;;2.97;2.20;;;;;;;7.01;100.00;99953.59;4975406;28;20033;-88
2024/01/04 05:53:11;;;;;;;3.63;2.50;;;;;;;6.98;100.00;99951.06;4981055;28;20113;-89
2024/01/04 05:55:37;;;;;;;4.00;2.70;;;;;;;6.93;100.00;99956.28;4995148;28;20027;-90
2024/01/04 05:58:02;;;;;;;3.72;2.47;;;;;;;6.91;100.00;99969.19;4995619;28;20026;-90
2024/01/04 06:00:27;;;;;;;3.63;2.33;;;;;;;6.90;100.00;99969.22;4995487;28;20486;-90
2024/01/04 06:02:52;;;;;;;3.27;2.00;;;;;;;6.91;100.00;99981.25;5001827;28;20030;-94
2024/01/04 06:05:18;;;;;;;4.00;2.20;;;;;;;6.90;100.00;99989.88;4995722;28;20081;-89
2024/01/04 06:07:43;;;;;;;3.03;2.20;;;;;;;6.86;100.00;99975.28;4994551;28;20019;-88
2024/01/04 06:10:08;;;;;;;4.30;2.00;;;;;;;6.86;100.00;99985.63;4994754;28;20038;-88
2024/01/04 06:12:34;;;;;;;1.60;1.50;;;;;;;6.85;100.00;99982.19;4988666;28;20050;-87
2024/01/04 06:14:59;;;;;;;2.25;1.60;;;;;;;6.84;100.00;99995.09;4975377;28;20476;-88
2024/01/04 06:17:24;;;;;;;2.83;1.87;;;;;;;6.79;100.00;99990.88;4974718;28;20131;-88
2024/01/04 06:19:53;;;;;;;2.23;1.80;;;;;;;6.79;100.00;99990.88;4975210;28;20030;-88
2024/01/04 06:22:18;;;;;;;2.10;1.80;;;;;;;6.77;100.00;100002.94;4975057;28;20094;-87
2024/01/04 06:24:46;;;;;;;3.83;2.03;;;;;;;6.76;100.00;99998.63;4974971;28;20058;-89
2024/01/04 06:27:11;;;;;;;3.85;2.10;;;;;;;6.71;100.00;99999.56;4985606;28;20491;-88
2024/01/04 06:29:36;;;;;;;2.57;1.70;;;;;;;6.74;100.00;100000.38;4994769;28;20065;-88
2024/01/04 06:32:02;;;;;;;2.40;2.20;;;;;;;6.75;100.00;100009.00;4994751;28;20072;-88
2024/01/04 06:34:27;;;;;;;2.57;2.13;;;;;;;6.73;100.00;100011.56;4996929;28;20481;-88
2024/01/04 06:36:55;;;;;;;2.47;1.97;;;;;;;6.73;100.00;100008.16;4998161;28;20062;-88
2024/01/04 06:39:20;;;;;;;2.30;2.05;;;;;;;6.70;100.00;100010.75;4998420;28;20382;-88
2024/01/04 06:41:46;;;;;;;2.70;2.10;;;;;;;6.69;100.00;100009.91;4998254;28;20027;-87
2024/01/04 06:44:11;;;;;;;2.58;1.90;;;;;;;6.65;100.00;100018.56;4997472;28;20046;-87
2024/01/04 06:46:36;;;;;;;2.70;2.00;;;;;;;6.68;100.00;100026.25;4997806;28;20360;-87
2024/01/04 06:49:02;;;;;;;1.70;1.60;;;;;;;6.64;100.00;100025.41;4998783;28;20045;-87
2024/01/04 06:51:30;;;;;;;3.03;1.90;;;;;;;6.67;100.00;100036.56;4998315;28;20037;-86
2024/01/04 06:53:55;;;;;;;1.80;1.60;;;;;;;6.68;100.00;100036.56;5002109;28;20026;-94
2024/01/04 06:56:36;;;;;;;1.70;1.60;;;;;;;6.60;100.00;100034.09;5191902;23;20054;-96
2024/01/04 06:59:03;;;;;;;1.30;1.20;;;;;;;6.69;100.00;100055.47;5213808;23;20065;-90
2024/01/04 07:01:29;;;;;;;1.33;1.23;;;;;;;6.71;100.00;100051.16;4999370;28;20101;-93
2024/01/04 07:03:58;;;;;;;1.03;1.03;;;;;;;6.71;100.00;100059.72;5000061;28;20058;-95
2024/01/04 07:06:23;;;;;;;1.20;1.10;;;;;;;6.72;100.00;100060.59;5000666;28;20026;-92
2024/01/04 07:08:51;;;;;;;1.37;1.27;;;;;;;6.73;100.00;100065.72;4998846;28;20455;-86
2024/01/04 07:11:20;;;;;;;2.55;1.55;;;;;;;6.73;100.00;100065.72;4998428;28;20070;-88
2024/01/04 07:13:45;;;;;;;1.67;1.58;;;;;;;6.74;100.00;100067.44;4997612;28;20058;-85
2024/01/04 07:16:22;;;;;;;2.10;1.60;;;;;;;6.75;100.00;100076.03;5002576;28;20044;-85
2024/01/04 07:18:48;;;;;;;1.50;1.25;;;;;;;6.73;100.00;100073.47;5001800;28;20189;-87
2024/01/04 07:21:13;;;;;;;1.23;1.20;;;;;;;6.75;100.00;100083.78;4998719;28;20038;-88
2024/01/04 07:23:38;;;;;;;1.63;1.40;;;;;;;6.76;100.00;100088.91;4997238;28;20101;-86
2024/01/04 07:26:08;;;;;;;2.47;1.70;;;;;;;6.77;100.00;100082.88;4998094;28;20026;-86
2024/01/04 07:28:40;;;;;;;4.72;1.80;;;;;;;6.76;100.00;100095.78;4996740;28;20524;-85
2024/01/04 07:31:05;;;;;;;1.90;1.70;;;;;;;6.74;100.00;100103.53;4997336;28;20033;-85
2024/01/04 07:33:30;;;;;;;1.60;1.50;;;;;;;6.72;100.00;100109.59;4997730;28;20109;-87
2024/01/04 07:35:56;;;;;;;1.87;1.47;;;;;;;6.76;100.00;100117.28;4997007;28;20018;-86
2024/01/04 07:38:21;;;;;;;1.60;1.50;;;;;;;6.77;100.00;100118.97;4997515;28;20026;-87
2024/01/04 07:40:47;;;;;;;1.20;1.20;;;;;;;6.77;100.00;100113.81;4997001;28;20364;-87
2024/01/04 07:43:13;;;;;;;1.38;1.20;;;;;;;6.77;100.00;100107.78;4986127;28;20031;-87
2024/01/04 07:45:38;;;;;;;0.90;0.90;;;;;;;6.83;100.00;100117.19;4976187;28;20078;-86
2024/01/04 07:48:06;;;;;;;0.98;0.98;;;;;;;6.84;100.00;100124.94;4977177;28;20442;-86
2024/01/04 07:50:32;;;;;;;1.80;1.13;;;;;;;6.85;100.00;100120.63;4977753;28;20054;-86
2024/01/04 07:52:57;;;;;;;1.00;0.90;;;;;;;6.88;100.00;100126.59;4977828;28;20459;-86
2024/01/04 07:55:22;;;;;;;0.60;0.60;;;;;;;6.89;100.00;100130.03;4976528;28;20033;-87
2024/01/04 07:57:48;;;;;;;0.57;0.57;;;;;;;6.91;100.00;100136.88;4977151;28;20074;-86
2024/01/04 08:00:13;;;;;;;0.68;0.68;;;;;;;6.92;100.00;100133.44;4977122;28;20065;-86
2024/01/04 08:02:39;;;;;;;1.23;0.97;;;;;;;6.95;100.00;100148.00;4976671;28;20058;-87
2024/01/04 08:05:04;;;;;;;2.20;1.27;;;;;;;6.92;100.00;100142.91;4984545;28;20117;-86
2024/01/04 08:07:30;;;;;;;1.20;1.10;;;;;;;6.94;100.00;100151.44;4996717;28;20077;-86
2024/01/04 08:09:56;;;;;;;0.83;0.80;;;;;;;6.94;100.00;100146.28;4995924;28;20057;-87
2024/01/04 08:12:21;;;;;;;1.30;1.20;;;;;;;6.95;100.00;100151.47;4996121;28;20018;-87
2024/01/04 08:14:46;;;;;;;1.27;1.00;;;;;;;6.92;100.00;100146.31;4995940;28;20034;-87
2024/01/04 08:17:12;;;;;;;1.70;1.60;;;;;;;6.91;100.00;100146.34;4996286;28;20022;-88
2024/01/04 08:19:37;;;;;;;2.33;1.63;;;;;;;6.89;100.00;100143.78;4996681;28;20033;-87
2024/01/04 08:22:03;;;;;;;2.73;2.03;;;;;;;6.91;100.00;100154.94;4996865;28;20041;-87
2024/01/04 08:24:28;;;;;;;4.57;2.28;;;;;;;6.88;100.00;100147.22;4995921;28;20068;-87
2024/01/04 08:26:54;;;;;;;3.63;2.10;;;;;;;6.87;100.00;100148.09;5014036;23;20053;-87
2024/01/04 08:29:19;;;;;;;4.57;2.08;;;;;;;6.87;100.00;100157.56;5016617;28;20034;-86
2024/01/04 08:31:45;;;;;;;5.53;2.37;;;;;;;6.87;100.00;100157.56;5015526;28;20030;-88
2024/01/04 08:34:10;;;;;;;3.47;2.50;;;;;;;6.87;100.00;100163.56;5015347;28;20080;-87
2024/01/04 08:36:36;;;;;;;4.75;2.70;;;;;;;6.84;100.00;100155.88;5016531;28;20026;-87
2024/01/04 08:39:04;;;;;;;4.33;2.40;;;;;;;6.83;100.00;100155.88;5015654;28;20112;-86
2024/01/04 08:41:29;;;;;;;3.25;2.20;;;;;;;6.86;100.00;100172.19;5016025;28;20037;-87
2024/01/04 08:43:56;;;;;;;4.67;2.40;;;;;;;6.87;100.00;100162.72;4999712;28;20034;-87
2024/01/04 08:46:21;;;;;;;3.53;2.20;;;;;;;6.86;100.00;100161.88;4994781;28;20031;-87
2024/01/04 08:48:47;;;;;;;4.10;2.07;;;;;;;6.86;100.00;100166.16;4996450;28;20027;-88
2024/01/04 08:51:12;;;;;;;4.83;2.40;;;;;;;6.84;100.00;100168.78;4995694;28;20027;-86
2024/01/04 08:53:41;;;;;;;4.32;2.00;;;;;;;6.83;100.00;100173.94;4995932;28;20515;-88
2024/01/04 08:56:08;;;;;;;3.95;2.03;;;;;;;6.77;100.00;100178.31;4995819;28;20057;-87
2024/01/04 08:58:34;;;;;;;3.05;2.10;;;;;;;6.75;100.00;100174.03;4994929;28;20125;-87
2024/01/04 09:01:02;;;;;;;2.17;1.97;;;;;;;6.74;100.00;100180.91;4995336;28;20068;-87
2024/01/04 09:03:27;;;;;;;1.98;1.77;;;;;;;6.72;100.00;100180.06;4996099;28;20018;-87
2024/01/04 09:05:53;;;;;;;2.70;1.90;;;;;;;6.72;100.00;100187.78;4995363;28;20045;-86
2024/01/04 09:08:18;;;;;;;2.83;2.00;;;;;;;6.75;100.00;100192.09;4996103;28;20026;-86
2024/01/04 09:10:43;;;;;;;2.60;1.77;;;;;;;6.74;100.00;100190.38;4994943;28;20052;-87
2024/01/04 09:13:09;;;;;;;2.03;1.83;;;;;;;6.78;100.00;100198.06;4994743;28;20022;-86
2024/01/04 09:15:34;;;;;;;3.10;1.90;;;;;;;6.82;100.00;100198.00;4995498;28;20041;-87
2024/01/04 09:18:00;;;;;;;2.40;1.83;;;;;;;6.80;100.00;100196.34;4995735;28;20026;-86
2024/01/04 09:20:25;;;;;;;2.00;1.70;;;;;;;6.85;100.00;100204.03;4995035;28;20033;-87
2024/01/04 09:22:53;;;;;;;2.90;2.10;;;;;;;6.87;100.00;100210.00;4995050;28;20128;-87
2024/01/04 09:25:18;;;;;;;2.10;1.90;;;;;;;6.88;100.00;100209.13;4995731;28;20507;-88
2024/01/04 09:27:43;;;;;;;4.97;2.20;;;;;;;6.88;100.00;100214.28;4995896;28;20074;-88
2024/01/04 09:30:09;;;;;;;2.17;1.73;;;;;;;6.88;100.00;100216.03;4996187;28;20092;-89
2024/01/04 09:32:34;;;;;;;1.83;1.67;;;;;;;6.88;100.00;100214.28;4995363;28;20038;-89
2024/01/04 09:35:00;;;;;;;3.03;1.77;;;;;;;6.88;100.00;100214.28;4995952;28;20026;-89
2024/01/04 09:37:26;;;;;;;1.90;1.50;;;;;;;6.86;100.00;100222.91;4995660;28;20074;-88
2024/01/04 09:39:54;;;;;;;1.40;1.30;;;;;;;6.84;100.00;100227.22;4996640;28;20038;-90
2024/01/04 09:45:10;;;;;;;2.95;1.40;;;;;;;6.85;100.00;100229.81;4975313;28;20455;-89
2024/01/04 09:47:40;;;;;;;1.52;1.25;;;;;;;6.84;100.00;100238.41;4976186;28;20450;-88
2024/01/04 09:50:12;;;;;;;1.40;1.10;;;;;;;6.86;100.00;100246.13;4975894;28;20085;-90
2024/01/04 09:55:12;;;;;;;2.35;1.20;;;;;;;6.88;100.00;100259.88;5010323;23;20077;-90
2024/01/04 09:57:38;;;;;;;1.00;1.00;;;;;;;6.89;100.00;100261.59;4987337;28;20039;-92
2024/01/04 10:00:04;;;;;;;0.90;0.90;;;;;;;6.89;100.00;100265.00;4994254;28;20011;-93
2024/01/04 10:02:33;;;;;;;0.73;0.63;;;;;;;6.88;100.00;100263.28;4984378;28;20038;-91
2024/01/04 10:05:06;;;;;;;0.70;0.70;;;;;;;6.89;100.00;100269.34;4978483;28;20282;-94
2024/01/04 10:07:39;;;;;;;1.65;0.98;;;;;;;6.88;100.00;100276.19;4977688;28;20038;-91
2024/01/04 10:10:13;;;;;;;0.60;0.60;;;;;;;6.84;100.00;100271.97;4974882;28;20050;-87
2024/01/04 10:12:42;;;;;;;0.50;0.50;;;;;;;6.84;100.00;100271.09;4970448;28;20031;-90
2024/01/04 10:15:11;;;;;;;1.55;1.00;;;;;;;6.86;100.00;100275.38;4956638;28;20094;-90
2024/01/04 10:17:37;;;;;;;1.05;1.02;;;;;;;6.83;100.00;100283.13;4956324;28;20062;-89
2024/01/04 10:20:04;;;;;;;1.43;0.97;;;;;;;6.81;100.00;100287.44;4956637;28;20456;-89
2024/01/04 10:22:29;;;;;;;;;;;;;;;6.82;100.00;100276.25;4956786;28;20083;-89
2024/01/04 10:25:06;;;;;;;0.67;0.60;;;;;;;6.84;100.00;100279.69;4955946;28;19915;-88
2024/01/04 10:27:31;;;;;;;1.33;0.82;;;;;;;6.86;100.00;100277.97;4956454;28;20070;-88
2024/01/04 10:30:03;;;;;;;0.70;0.70;;;;;;;6.89;100.00;100285.66;5024771;23;20142;-88
2024/01/04 10:32:28;;;;;;;0.93;0.85;;;;;;;6.90;100.00;100277.03;4994363;28;20019;-88
2024/01/04 10:35:03;;;;;;;1.43;1.33;;;;;;;6.92;100.00;100292.53;4994783;28;20032;-87
2024/01/04 10:37:29;;;;;;;1.80;0.90;;;;;;;6.95;100.00;100287.31;4995037;28;20023;-88
2024/01/04 10:39:56;;;;;;;1.07;1.07;;;;;;;7.00;100.00;100285.56;4994904;28;20037;-87
2024/01/04 10:42:22;;;;;;;1.33;1.02;;;;;;;7.01;100.00;100282.13;4994175;28;20041;-86
2024/01/04 10:44:54;;;;;;;1.13;1.13;;;;;;;7.06;100.00;100287.22;4993167;28;20030;-86
2024/01/04 10:47:20;;;;;;;0.80;0.80;;;;;;;7.05;100.00;100294.09;4994293;28;20026;-87
2024/01/04 10:49:49;;;;;;;1.33;1.03;;;;;;;7.09;100.00;100298.38;4993701;28;20066;-88
2024/01/04 10:52:16;;;;;;;1.27;1.17;;;;;;;7.10;100.00;100294.91;4993858;28;20057;-88
2024/01/04 10:54:45;;;;;;;1.98;1.33;;;;;;;7.13;100.00;100298.34;4993795;28;20088;-88
2024/01/04 10:57:12;;;;;;;1.17;1.17;;;;;;;7.15;100.00;100294.03;4994651;28;20022;-88
2024/01/04 10:59:39;;;;;;;3.40;1.30;;;;;;;7.18;100.00;100299.13;4993676;28;20019;-88
2024/01/04 11:02:05;;;;;;;1.50;1.40;;;;;;;7.22;100.00;100301.66;4994269;28;20530;-88
2024/01/04 11:04:30;;;;;;;2.25;1.40;;;;;;;7.18;100.00;100301.72;4994724;28;20026;-88
2024/01/04 11:06:57;;;;;;;1.40;1.30;;;;;;;7.17;100.00;100300.88;4994245;28;20072;-86
2024/01/04 11:09:24;;;;;;;1.20;1.10;;;;;;;7.21;100.00;100304.28;4995610;28;20076;-87
2024/01/04 11:11:51;;;;;;;1.35;1.10;;;;;;;7.21;100.00;100302.53;4994351;28;20062;-87
2024/01/04 11:14:18;;;;;;;0.98;0.98;;;;;;;7.23;100.00;100305.97;4991206;28;20023;-87
2024/01/04 11:16:52;;;;;;;1.38;1.27;;;;;;;7.26;100.00;100305.09;4980165;28;20498;-88
2024/01/04 11:19:17;;;;;;;0.90;0.90;;;;;;;7.24;100.00;100304.25;4974813;28;20495;-88
2024/01/04 11:22:07;;;;;;;1.00;0.90;;;;;;;7.22;100.00;100296.50;4978017;28;20030;-88
2024/01/04 11:25:00;;;;;;;1.35;1.25;;;;;;;7.26;100.00;100305.09;4994781;28;20092;-88
2024/01/04 11:27:29;;;;;;;1.55;1.30;;;;;;;7.23;100.00;100299.97;4997352;28;20026;-88
2024/01/04 11:29:55;;;;;;;1.50;1.20;;;;;;;7.26;100.00;100300.78;4997361;28;20046;-87
2024/01/04 11:32:23;;;;;;;2.33;1.30;;;;;;;7.30;100.00;100306.75;4997186;28;20030;-87